Time;durP1;ratioP1;P1;durP2;ratioP2;P2;SDS_P1;SDS_P2;PMS_P1;PMS_P2;Temp;Humidity;BMP_temperature;BMP_pressure;BME280_temperature;BME280_humidity;BME280_pressure;Samples;Min_cycle;Max_cycle;Signal;HPM_P1;HPM_P2
2024/01/29 00:01:23;;;;;;;4.70;2.60;;;6.80;98.90;;;;;;5037391;28;20499;-63
2024/01/29 00:03:49;;;;;;;6.35;2.60;;;6.80;99.00;;;;;;5032416;28;20053;-63
2024/01/29 00:06:15;;;;;;;4.28;2.90;;;6.80;99.10;;;;;;5032094;28;20094;-63
2024/01/29 00:08:41;;;;;;;9.90;3.15;;;6.70;99.20;;;;;;4998567;28;20045;-64
2024/01/29 00:11:07;;;;;;;4.37;1.87;;;6.70;99.20;;;;;;5032815;28;20229;-63
2024/01/29 00:13:32;;;;;;;7.25;2.65;;;6.70;99.40;;;;;;5032186;28;20034;-63
2024/01/29 00:15:59;;;;;;;7.35;2.75;;;6.70;99.30;;;;;;5032497;28;20113;-63
2024/01/29 00:18:25;;;;;;;3.00;2.22;;;6.60;99.60;;;;;;5047773;28;20170;-63
2024/01/29 00:20:51;;;;;;;4.03;2.15;;;6.60;99.70;;;;;;5014307;28;20511;-63
2024/01/29 00:23:17;;;;;;;3.65;2.70;;;6.60;99.80;;;;;;5032146;28;20040;-63
2024/01/29 00:25:43;;;;;;;5.38;2.67;;;6.60;99.60;;;;;;5037933;28;20034;-63
2024/01/29 00:28:08;;;;;;;4.88;2.20;;;6.60;99.50;;;;;;5031278;28;20052;-63
2024/01/29 00:30:34;;;;;;;4.53;2.35;;;6.60;99.60;;;;;;5035650;28;20048;-63
2024/01/29 00:33:00;;;;;;;3.67;2.00;;;6.60;99.70;;;;;;5031917;28;20049;-64
2024/01/29 00:35:25;;;;;;;5.57;2.47;;;6.50;99.80;;;;;;5032693;28;20277;-64
2024/01/29 00:37:51;;;;;;;4.72;2.47;;;6.50;99.90;;;;;;5031897;28;20041;-64
2024/01/29 00:40:17;;;;;;;6.97;2.08;;;6.50;99.90;;;;;;5036398;28;20048;-64
2024/01/29 00:42:43;;;;;;;4.32;2.60;;;6.50;99.90;;;;;;5033023;28;20116;-64
2024/01/29 00:45:09;;;;;;;5.47;2.17;;;6.40;99.90;;;;;;5032426;28;20163;-64
2024/01/29 00:47:35;;;;;;;4.25;2.55;;;6.40;99.90;;;;;;5031839;28;20124;-64
2024/01/29 00:50:01;;;;;;;6.05;2.65;;;6.40;99.90;;;;;;5033533;28;20516;-64
2024/01/29 00:52:26;;;;;;;3.67;2.13;;;6.40;99.90;;;;;;5035617;28;20045;-64
2024/01/29 00:54:52;;;;;;;3.93;3.03;;;6.30;99.90;;;;;;5034517;28;20044;-64
2024/01/29 00:57:19;;;;;;;5.93;2.23;;;6.30;99.90;;;;;;5034823;28;20113;-65
2024/01/29 00:59:44;;;;;;;5.13;3.00;;;6.30;99.90;;;;;;5031272;28;20280;-64
2024/01/29 01:02:10;;;;;;;5.77;2.93;;;6.30;99.90;;;;;;5030509;28;20037;-64
2024/01/29 01:04:36;;;;;;;3.63;2.40;;;6.20;99.90;;;;;;5031343;28;20444;-64
2024/01/29 01:07:01;;;;;;;3.07;2.60;;;6.30;99.90;;;;;;5031471;28;20048;-64
2024/01/29 01:09:27;;;;;;;4.50;2.20;;;6.30;99.90;;;;;;5031118;28;20065;-64
2024/01/29 01:11:52;;;;;;;3.03;2.27;;;6.30;99.90;;;;;;5013512;28;20042;-64
2024/01/29 01:14:18;;;;;;;3.60;2.93;;;6.30;99.90;;;;;;5035021;28;20041;-64
2024/01/29 01:16:43;;;;;;;5.13;2.30;;;6.30;99.90;;;;;;5031044;28;20370;-64
2024/01/29 01:19:09;;;;;;;6.97;3.03;;;6.30;99.90;;;;;;5037593;28;20057;-65
2024/01/29 01:21:35;;;;;;;6.22;2.45;;;6.30;99.90;;;;;;5030468;28;20052;-64
2024/01/29 01:24:01;;;;;;;4.77;3.13;;;6.30;99.90;;;;;;5036249;28;20045;-64
2024/01/29 01:26:27;;;;;;;6.72;2.72;;;6.30;99.90;;;;;;5031529;28;20041;-64
2024/01/29 01:28:52;;;;;;;4.97;2.33;;;6.30;99.90;;;;;;5035700;28;20547;-64
2024/01/29 01:31:18;;;;;;;6.27;3.17;;;6.30;99.90;;;;;;5049234;28;20478;-63
2024/01/29 01:33:43;;;;;;;4.27;2.47;;;6.30;99.90;;;;;;5035076;28;20049;-64
2024/01/29 01:36:09;;;;;;;6.67;2.90;;;6.30;99.90;;;;;;5031641;28;20547;-64
2024/01/29 01:38:35;;;;;;;5.03;2.15;;;6.30;99.90;;;;;;5031769;28;20497;-64
2024/01/29 01:41:00;;;;;;;5.93;2.70;;;6.30;99.90;;;;;;5030279;28;20049;-63
2024/01/29 01:43:26;;;;;;;8.50;2.60;;;6.30;99.90;;;;;;5030514;28;20179;-63
2024/01/29 01:46:16;;;;;;;4.53;2.47;;;6.20;99.90;;;;;;5031753;28;20048;-63
2024/01/29 01:48:41;;;;;;;6.22;3.05;;;6.20;99.90;;;;;;5031540;28;20038;-63
2024/01/29 01:51:07;;;;;;;3.87;2.27;;;6.20;99.90;;;;;;5031189;28;20040;-63
2024/01/29 01:53:35;;;;;;;3.35;2.38;;;6.10;99.90;;;;;;5030074;28;20082;-64
2024/01/29 01:56:02;;;;;;;3.67;2.40;;;6.10;99.90;;;;;;5033284;28;20041;-63
2024/01/29 01:58:28;;;;;;;4.18;2.88;;;6.00;99.90;;;;;;5031493;28;20120;-63
2024/01/29 02:00:56;;;;;;;6.63;2.65;;;6.10;99.90;;;;;;5012695;28;20398;-63
2024/01/29 02:03:21;;;;;;;5.40;3.58;;;6.00;99.90;;;;;;5028018;28;20057;-64
2024/01/29 02:05:47;;;;;;;4.97;3.07;;;6.00;99.90;;;;;;5031393;28;20038;-64
2024/01/29 02:08:15;;;;;;;3.63;2.70;;;6.00;99.90;;;;;;5031890;28;20123;-63
2024/01/29 02:10:40;;;;;;;8.55;2.70;;;6.00;99.90;;;;;;5031688;28;20673;-64
2024/01/29 02:13:13;;;;;;;6.50;3.10;;;6.10;99.90;;;;;;5030199;28;20034;-64
2024/01/29 02:15:39;;;;;;;4.18;2.38;;;6.10;99.90;;;;;;5028940;28;20075;-64
2024/01/29 02:18:05;;;;;;;5.90;2.93;;;6.00;99.90;;;;;;5038262;28;20049;-64
2024/01/29 02:20:31;;;;;;;4.75;2.45;;;6.00;99.90;;;;;;5030679;28;20280;-64
2024/01/29 02:22:57;;;;;;;;;;;6.00;99.90;;;;;;5030132;28;20045;-64
2024/01/29 02:25:22;;;;;;;5.20;3.03;;;6.00;99.90;;;;;;5010401;28;19996;-63
2024/01/29 02:27:48;;;;;;;4.22;3.17;;;6.00;99.90;;;;;;5040377;28;20540;-64
2024/01/29 02:30:13;;;;;;;6.43;2.77;;;6.00;99.90;;;;;;5032585;28;20044;-63
2024/01/29 02:32:39;;;;;;;7.03;2.97;;;6.00;99.90;;;;;;5031357;28;20038;-63
2024/01/29 02:35:06;;;;;;;5.70;3.47;;;5.90;99.90;;;;;;5029630;28;20049;-63
2024/01/29 02:37:32;;;;;;;3.90;2.55;;;6.00;99.90;;;;;;5030484;28;20053;-64
2024/01/29 02:39:59;;;;;;;9.77;3.10;;;5.90;99.90;;;;;;5037980;28;20092;-64
2024/01/29 02:42:24;;;;;;;5.63;2.95;;;5.90;99.90;;;;;;5032886;28;20042;-63
2024/01/29 02:44:50;;;;;;;4.90;2.67;;;5.80;99.90;;;;;;5013187;28;20049;-63
2024/01/29 02:47:16;;;;;;;5.07;3.53;;;5.80;99.90;;;;;;5029658;28;20099;-63
2024/01/29 02:49:45;;;;;;;3.20;2.93;;;5.80;99.90;;;;;;5031356;28;20155;-64
2024/01/29 02:52:11;;;;;;;7.30;3.75;;;5.80;99.90;;;;;;5029864;28;20303;-63
2024/01/29 02:54:37;;;;;;;5.75;2.78;;;5.80;99.90;;;;;;5029333;28;20043;-64
2024/01/29 02:57:04;;;;;;;7.20;3.10;;;5.80;99.90;;;;;;5032644;28;20037;-63
2024/01/29 02:59:30;;;;;;;4.75;3.17;;;5.80;99.90;;;;;;5032982;28;20134;-63
2024/01/29 03:01:56;;;;;;;6.13;3.00;;;5.80;99.90;;;;;;5031404;28;20538;-63
2024/01/29 03:04:22;;;;;;;8.17;2.90;;;5.80;99.90;;;;;;5030510;28;20466;-63
2024/01/29 03:06:47;;;;;;;5.63;3.25;;;5.80;99.90;;;;;;5028774;28;20389;-63
2024/01/29 03:09:14;;;;;;;4.17;2.63;;;5.80;99.90;;;;;;5016449;28;20040;-64
2024/01/29 03:11:40;;;;;;;5.95;3.53;;;5.80;99.90;;;;;;5030332;28;20398;-64
2024/01/29 03:14:06;;;;;;;4.88;3.25;;;5.80;99.90;;;;;;5030001;28;20052;-63
2024/01/29 03:16:31;;;;;;;6.00;3.20;;;5.80;99.90;;;;;;5028938;28;20049;-63
2024/01/29 03:18:57;;;;;;;11.53;3.67;;;5.70;99.90;;;;;;5031238;28;20041;-63
2024/01/29 03:21:23;;;;;;;5.50;3.83;;;5.70;99.90;;;;;;5031114;28;20187;-64
2024/01/29 03:23:48;;;;;;;5.57;2.87;;;5.70;99.90;;;;;;5028856;28;20561;-64
2024/01/29 03:26:14;;;;;;;7.70;3.30;;;5.70;99.90;;;;;;5028823;28;20283;-64
2024/01/29 03:28:40;;;;;;;7.53;3.07;;;5.70;99.90;;;;;;5032374;28;20038;-63
2024/01/29 03:31:06;;;;;;;4.82;3.03;;;5.60;99.90;;;;;;5031990;28;20041;-64
2024/01/29 03:33:31;;;;;;;4.40;3.10;;;5.60;99.90;;;;;;5031704;28;20084;-64
2024/01/29 03:35:57;;;;;;;4.70;3.63;;;5.60;99.90;;;;;;5030493;28;20037;-64
2024/01/29 03:38:23;;;;;;;6.35;3.30;;;5.50;99.90;;;;;;5029930;28;20071;-64
2024/01/29 03:40:49;;;;;;;5.45;2.90;;;5.50;99.90;;;;;;5030109;28;20418;-64
2024/01/29 03:43:14;;;;;;;3.60;3.17;;;5.40;99.90;;;;;;5028133;28;20112;-64
2024/01/29 03:45:40;;;;;;;4.50;3.33;;;5.40;99.90;;;;;;5028826;28;20045;-64
2024/01/29 03:48:06;;;;;;;3.70;2.77;;;5.40;99.90;;;;;;5032907;28;20300;-63
2024/01/29 03:50:31;;;;;;;5.38;3.58;;;5.40;99.90;;;;;;5029178;28;20029;-63
2024/01/29 03:52:57;;;;;;;4.53;3.60;;;5.40;99.90;;;;;;5029766;28;20041;-64
2024/01/29 03:55:22;;;;;;;8.40;3.80;;;5.40;99.90;;;;;;5032497;28;20112;-64
2024/01/29 03:57:48;;;;;;;4.80;3.50;;;5.30;99.90;;;;;;5029889;28;20056;-63
2024/01/29 04:00:18;;;;;;;5.07;3.93;;;5.30;99.90;;;;;;5028752;28;20409;-64
2024/01/29 04:02:46;;;;;;;8.20;3.35;;;5.30;99.90;;;;;;5029227;28;20099;-64
2024/01/29 04:05:12;;;;;;;5.65;4.63;;;5.40;99.90;;;;;;5030923;28;20084;-64
2024/01/29 04:07:38;;;;;;;4.22;3.25;;;5.30;99.90;;;;;;5036805;28;20378;-64
2024/01/29 04:10:04;;;;;;;6.13;3.28;;;5.30;99.90;;;;;;5029073;28;20037;-64
2024/01/29 04:12:30;;;;;;;5.55;3.40;;;5.30;99.90;;;;;;5029222;28;20038;-64
2024/01/29 04:14:56;;;;;;;3.83;3.00;;;5.30;99.90;;;;;;5028335;28;20310;-64
2024/01/29 04:17:21;;;;;;;4.60;2.70;;;5.20;99.90;;;;;;5029588;28;20536;-64
2024/01/29 04:19:47;;;;;;;5.25;3.15;;;5.20;99.90;;;;;;5028381;28;20124;-64
2024/01/29 04:22:13;;;;;;;3.28;2.97;;;5.20;99.90;;;;;;5029481;28;20049;-64
2024/01/29 04:24:38;;;;;;;6.60;3.93;;;5.20;99.90;;;;;;5028216;28;20095;-64
2024/01/29 04:27:04;;;;;;;5.33;3.93;;;5.20;99.90;;;;;;5030317;28;20087;-64
2024/01/29 04:29:30;;;;;;;4.80;3.35;;;5.20;99.90;;;;;;5032323;28;20510;-64
2024/01/29 04:31:55;;;;;;;4.23;3.40;;;5.30;99.90;;;;;;5032834;28;20039;-64
2024/01/29 04:34:21;;;;;;;4.00;3.27;;;5.30;99.90;;;;;;5030006;28;20566;-64
2024/01/29 04:36:46;;;;;;;7.47;3.37;;;5.30;99.90;;;;;;5033805;28;20049;-64
2024/01/29 04:39:12;;;;;;;4.70;3.97;;;5.30;99.90;;;;;;5033454;28;20033;-64
2024/01/29 04:41:38;;;;;;;4.18;3.78;;;5.30;99.90;;;;;;5032692;28;20045;-64
2024/01/29 04:44:04;;;;;;;6.37;3.50;;;5.30;99.90;;;;;;5036462;28;20034;-64
2024/01/29 04:46:30;;;;;;;3.43;3.13;;;5.30;99.90;;;;;;5031289;28;20752;-64
2024/01/29 04:48:55;;;;;;;7.32;3.75;;;5.20;99.90;;;;;;5033751;28;20029;-64
2024/01/29 04:51:21;;;;;;;4.40;3.63;;;5.20;99.90;;;;;;5014255;28;20044;-64
2024/01/29 04:53:47;;;;;;;3.67;3.22;;;5.10;99.90;;;;;;5033549;28;20049;-64
2024/01/29 04:56:13;;;;;;;4.07;3.50;;;5.10;99.90;;;;;;5034556;28;20029;-63
2024/01/29 04:58:38;;;;;;;6.30;3.63;;;5.00;99.90;;;;;;5016714;28;20560;-63
2024/01/29 05:01:04;;;;;;;3.67;3.10;;;4.90;99.90;;;;;;5030851;28;20501;-64
2024/01/29 05:03:30;;;;;;;4.27;3.33;;;4.90;99.90;;;;;;5029415;28;20047;-64
2024/01/29 05:05:56;;;;;;;5.25;3.30;;;4.90;99.90;;;;;;5031772;28;20134;-64
2024/01/29 05:08:22;;;;;;;3.70;3.35;;;4.90;99.90;;;;;;5035222;28;20037;-63
2024/01/29 05:10:47;;;;;;;6.53;4.45;;;4.90;99.90;;;;;;5036477;28;20037;-64
2024/01/29 05:13:14;;;;;;;5.33;3.43;;;4.90;99.90;;;;;;5031516;28;20394;-64
2024/01/29 05:15:40;;;;;;;;;;;4.80;99.90;;;;;;5034989;28;20084;-63
2024/01/29 05:18:06;;;;;;;13.07;3.97;;;4.80;99.90;;;;;;5018526;28;19929;-63
2024/01/29 05:20:32;;;;;;;6.10;3.78;;;4.80;99.90;;;;;;5037160;28;20045;-63
2024/01/29 05:22:57;;;;;;;5.60;3.97;;;4.80;99.90;;;;;;5036914;28;20053;-64
2024/01/29 05:25:23;;;;;;;5.13;3.60;;;4.90;99.90;;;;;;5032904;28;20121;-63
2024/01/29 05:27:48;;;;;;;6.07;3.83;;;4.80;99.90;;;;;;5033728;28;20068;-63
2024/01/29 05:30:15;;;;;;;6.50;3.20;;;4.90;99.90;;;;;;5017394;28;20417;-63
2024/01/29 05:32:41;;;;;;;6.35;3.67;;;4.90;99.90;;;;;;5035954;28;20057;-63
2024/01/29 05:35:07;;;;;;;5.25;3.83;;;4.90;99.90;;;;;;5033305;28;20178;-63
2024/01/29 05:37:34;;;;;;;6.35;3.35;;;4.90;99.90;;;;;;5030653;28;20098;-63
2024/01/29 05:40:00;;;;;;;5.63;4.35;;;4.90;99.90;;;;;;5015173;28;20068;-63
2024/01/29 05:42:26;;;;;;;;;;;4.90;99.90;;;;;;5033894;28;20115;-63
2024/01/29 05:44:51;;;;;;;6.15;3.90;;;4.90;99.90;;;;;;5029588;28;19975;-64
2024/01/29 05:47:17;;;;;;;6.70;3.77;;;4.90;99.90;;;;;;5030993;28;20044;-64
2024/01/29 05:49:43;;;;;;;7.18;3.25;;;4.80;99.90;;;;;;5030730;28;20037;-63
2024/01/29 05:52:08;;;;;;;5.63;4.20;;;4.80;99.90;;;;;;4997066;28;20079;-64
2024/01/29 05:54:34;;;;;;;16.17;4.20;;;4.80;99.90;;;;;;5013801;28;20037;-63
2024/01/29 05:57:00;;;;;;;8.33;4.27;;;4.80;99.90;;;;;;5033617;28;20413;-64
2024/01/29 05:59:26;;;;;;;4.88;3.55;;;4.80;99.90;;;;;;5032596;28;20040;-63
2024/01/29 06:01:51;;;;;;;4.77;3.90;;;4.80;99.90;;;;;;5034435;28;20049;-63
2024/01/29 06:04:17;;;;;;;4.07;3.63;;;4.80;99.90;;;;;;5034528;28;20029;-63
2024/01/29 06:06:43;;;;;;;5.77;4.07;;;4.80;99.90;;;;;;5030114;28;20119;-63
2024/01/29 06:09:09;;;;;;;6.28;4.05;;;4.80;99.90;;;;;;5031885;28;20041;-63
2024/01/29 06:11:35;;;;;;;6.65;3.60;;;4.80;99.90;;;;;;5032423;28;20220;-63
2024/01/29 06:14:01;;;;;;;6.47;3.90;;;4.80;99.90;;;;;;5031744;28;20067;-63
2024/01/29 06:16:28;;;;;;;5.57;4.05;;;4.80;99.90;;;;;;5029978;28;20372;-64
2024/01/29 06:18:55;;;;;;;10.15;4.47;;;4.80;99.90;;;;;;5030334;28;20418;-64
2024/01/29 06:21:21;;;;;;;5.10;4.35;;;4.80;99.90;;;;;;5030189;28;20042;-63
2024/01/29 06:23:48;;;;;;;7.43;4.28;;;4.80;99.90;;;;;;5031409;28;20052;-64
2024/01/29 06:26:14;;;;;;;5.82;3.88;;;4.70;99.90;;;;;;5030857;28;20117;-63
2024/01/29 06:28:43;;;;;;;6.78;3.88;;;4.70;99.90;;;;;;5037528;28;20045;-64
2024/01/29 06:31:08;;;;;;;4.68;4.13;;;4.70;99.90;;;;;;5033096;28;20041;-63
2024/01/29 06:33:35;;;;;;;4.60;3.93;;;4.60;99.90;;;;;;5034568;28;20413;-64
2024/01/29 06:36:02;;;;;;;6.75;3.97;;;4.60;99.90;;;;;;5023668;28;20287;-64
2024/01/29 06:38:28;;;;;;;4.30;3.90;;;4.60;99.90;;;;;;5030105;28;20037;-63
2024/01/29 06:40:54;;;;;;;4.63;4.22;;;4.60;99.90;;;;;;5029187;28;20048;-63
2024/01/29 06:43:19;;;;;;;6.40;4.13;;;4.60;99.90;;;;;;5028825;28;20049;-63
2024/01/29 06:45:45;;;;;;;3.97;3.50;;;4.60;99.90;;;;;;5031320;28;20047;-63
2024/01/29 06:48:11;;;;;;;7.97;4.13;;;4.60;99.90;;;;;;5034982;28;20089;-63
2024/01/29 06:50:39;;;;;;;7.35;4.35;;;4.60;99.90;;;;;;5029476;28;20053;-63
2024/01/29 06:53:04;;;;;;;6.78;4.60;;;4.60;99.90;;;;;;5033231;28;20038;-64
2024/01/29 06:55:30;;;;;;;4.93;4.43;;;4.60;99.90;;;;;;5029871;28;20510;-64
2024/01/29 06:57:56;;;;;;;6.47;4.10;;;4.60;99.90;;;;;;5030042;28;20468;-64
2024/01/29 07:00:21;;;;;;;6.70;4.03;;;4.70;99.90;;;;;;5029178;28;20033;-64
2024/01/29 07:02:47;;;;;;;4.53;3.63;;;4.70;99.90;;;;;;5014682;28;20099;-64
2024/01/29 07:05:13;;;;;;;5.17;4.07;;;4.70;99.90;;;;;;5033177;28;20516;-65
2024/01/29 07:07:38;;;;;;;6.67;4.20;;;4.70;99.90;;;;;;5030056;28;20110;-64
2024/01/29 07:10:04;;;;;;;7.73;4.10;;;4.70;99.90;;;;;;5029243;28;20033;-64
2024/01/29 07:12:30;;;;;;;4.68;3.92;;;4.70;99.90;;;;;;5029300;28;20049;-64
2024/01/29 07:14:56;;;;;;;3.67;3.37;;;4.70;99.90;;;;;;5029659;28;20045;-64
2024/01/29 07:17:21;;;;;;;4.35;3.47;;;4.70;99.90;;;;;;5029557;28;20136;-64
2024/01/29 07:19:48;;;;;;;5.93;3.83;;;4.70;99.90;;;;;;5033927;28;20044;-64
2024/01/29 07:22:18;;;;;;;;;;;4.70;99.90;;;;;;5030645;28;20338;-64
2024/01/29 07:24:48;;;;;;;3.45;3.15;;;4.70;99.90;;;;;;5028308;28;20008;-64
2024/01/29 07:27:17;;;;;;;7.45;4.38;;;4.70;99.90;;;;;;5024170;28;20099;-64
2024/01/29 07:29:44;;;;;;;8.25;4.28;;;4.70;99.90;;;;;;5027477;28;20474;-64
2024/01/29 07:32:10;;;;;;;4.65;3.40;;;4.80;99.90;;;;;;5028717;28;20041;-64
2024/01/29 07:34:36;;;;;;;6.93;4.53;;;4.80;99.90;;;;;;5028662;28;20298;-64
2024/01/29 07:37:02;;;;;;;7.57;3.45;;;4.80;99.90;;;;;;5028221;28;20194;-64
2024/01/29 07:39:28;;;;;;;6.85;4.63;;;4.80;99.90;;;;;;5027358;28;20041;-64
2024/01/29 07:41:54;;;;;;;6.00;4.07;;;4.90;99.90;;;;;;5028642;28;20107;-64
2024/01/29 07:44:20;;;;;;;10.43;4.20;;;5.00;99.90;;;;;;5028870;28;20095;-64
2024/01/29 07:46:45;;;;;;;6.07;3.70;;;5.10;99.90;;;;;;5027884;28;20073;-64
2024/01/29 07:49:12;;;;;;;6.47;4.87;;;5.20;99.90;;;;;;5032411;28;20034;-64
2024/01/29 07:51:40;;;;;;;;;;;5.40;99.90;;;;;;5029283;28;20033;-67
2024/01/29 07:54:07;;;;;;;7.07;3.85;;;5.50;99.90;;;;;;5029090;28;19928;-67
2024/01/29 07:56:33;;;;;;;7.63;4.15;;;5.70;99.90;;;;;;5027123;28;20112;-67
2024/01/29 07:58:58;;;;;;;6.67;3.83;;;5.90;99.90;;;;;;5029005;28;20121;-66
2024/01/29 08:01:24;;;;;;;4.87;3.63;;;6.00;99.90;;;;;;5029872;28;20091;-67
2024/01/29 08:03:49;;;;;;;5.07;3.43;;;6.10;99.90;;;;;;5030838;28;20124;-67
2024/01/29 08:06:15;;;;;;;5.05;4.47;;;6.10;99.90;;;;;;5011352;28;20095;-67
2024/01/29 08:08:41;;;;;;;5.17;3.67;;;6.10;99.90;;;;;;5008664;28;20294;-67
2024/01/29 08:11:06;;;;;;;5.30;4.03;;;6.00;99.90;;;;;;5028979;28;20083;-67
2024/01/29 08:13:32;;;;;;;4.93;3.70;;;6.00;99.90;;;;;;5011092;28;20038;-64
2024/01/29 08:15:59;;;;;;;5.87;4.13;;;5.90;99.90;;;;;;5031541;28;20029;-68
2024/01/29 08:18:25;;;;;;;5.07;3.83;;;6.00;99.90;;;;;;5030162;28;20042;-66
2024/01/29 08:20:51;;;;;;;8.15;4.95;;;6.10;99.90;;;;;;5014335;28;20048;-68
2024/01/29 08:23:16;;;;;;;5.50;4.45;;;6.30;99.90;;;;;;5042742;28;20045;-67
2024/01/29 08:25:42;;;;;;;8.87;5.13;;;6.50;99.90;;;;;;5031649;28;20132;-64
2024/01/29 08:28:07;;;;;;;8.33;4.27;;;6.60;99.90;;;;;;5013406;28;20304;-66
2024/01/29 08:30:33;;;;;;;5.93;4.60;;;6.80;99.90;;;;;;5030014;28;20026;-66
2024/01/29 08:32:59;;;;;;;4.93;4.37;;;7.00;99.90;;;;;;5013397;28;20464;-66
2024/01/29 08:35:24;;;;;;;6.47;4.03;;;7.20;99.90;;;;;;5030338;28;20537;-66
2024/01/29 08:37:50;;;;;;;7.10;4.23;;;7.20;99.90;;;;;;5030794;28;20112;-67
2024/01/29 08:40:16;;;;;;;8.32;3.70;;;7.20;99.90;;;;;;5030696;28;20049;-66
2024/01/29 08:42:41;;;;;;;4.35;3.95;;;7.50;99.90;;;;;;5031351;28;20141;-65
2024/01/29 08:45:07;;;;;;;4.47;3.33;;;7.90;99.90;;;;;;5027422;28;20418;-66
2024/01/29 08:47:33;;;;;;;5.80;4.13;;;8.70;99.90;;;;;;5021267;28;20306;-66
2024/01/29 08:49:58;;;;;;;8.90;4.13;;;9.40;99.90;;;;;;5025316;28;20029;-65
2024/01/29 08:52:24;;;;;;;4.77;4.27;;;10.00;99.90;;;;;;5026481;28;20103;-66
2024/01/29 08:54:49;;;;;;;7.00;4.20;;;10.40;99.90;;;;;;5030783;28;20037;-66
2024/01/29 08:57:15;;;;;;;3.20;3.00;;;10.60;99.90;;;;;;5025790;28;20063;-66
2024/01/29 08:59:41;;;;;;;7.07;3.97;;;10.80;99.90;;;;;;5026461;28;20475;-65
2024/01/29 09:02:07;;;;;;;4.30;3.83;;;11.00;99.90;;;;;;5006618;28;20120;-66
2024/01/29 09:04:33;;;;;;;9.55;4.03;;;11.00;99.40;;;;;;5027666;28;20496;-66
2024/01/29 09:06:59;;;;;;;5.18;3.00;;;11.10;99.20;;;;;;5024673;28;20046;-66
2024/01/29 09:09:24;;;;;;;8.33;3.93;;;11.20;98.40;;;;;;4992931;28;20037;-65
2024/01/29 09:11:51;;;;;;;4.57;3.80;;;11.30;98.20;;;;;;5026492;28;20072;-65
2024/01/29 09:14:17;;;;;;;4.43;3.80;;;11.30;98.20;;;;;;5025219;28;20037;-65
2024/01/29 09:16:43;;;;;;;;;;;11.20;97.80;;;;;;5024980;28;20059;-66
2024/01/29 09:19:10;;;;;;;7.38;3.90;;;11.00;98.10;;;;;;5007054;28;20340;-66
2024/01/29 09:21:36;;;;;;;4.38;3.80;;;10.80;98.20;;;;;;5023173;28;20397;-65
2024/01/29 09:24:03;;;;;;;5.32;3.65;;;10.80;98.50;;;;;;5024695;28;20045;-66
2024/01/29 09:26:29;;;;;;;6.00;4.25;;;10.90;98.80;;;;;;5027180;28;20583;-64
2024/01/29 09:28:54;;;;;;;5.47;4.10;;;10.90;98.20;;;;;;5004605;28;20087;-66
2024/01/29 09:31:20;;;;;;;5.18;4.13;;;10.80;98.30;;;;;;5024601;28;20033;-65
2024/01/29 09:33:45;;;;;;;7.45;4.78;;;10.80;98.30;;;;;;5024605;28;20049;-64
2024/01/29 09:36:11;;;;;;;5.03;4.53;;;10.80;98.40;;;;;;5025804;28;20727;-65
2024/01/29 09:38:37;;;;;;;9.77;4.43;;;10.60;98.40;;;;;;5024193;28;20045;-65
2024/01/29 09:41:03;;;;;;;5.20;4.53;;;10.60;98.80;;;;;;5025076;28;20029;-65
2024/01/29 09:43:33;;;;;;;5.50;4.55;;;10.60;99.10;;;;;;5023634;28;20133;-65
2024/01/29 09:46:03;;;;;;;6.45;4.63;;;10.50;99.10;;;;;;5023082;28;20030;-65
2024/01/29 09:48:30;;;;;;;5.90;4.35;;;10.40;99.20;;;;;;5005261;28;20111;-65
2024/01/29 09:50:58;;;;;;;9.88;5.15;;;10.40;99.30;;;;;;5023273;28;20064;-65
2024/01/29 09:53:24;;;;;;;6.60;4.30;;;10.30;99.30;;;;;;5005910;28;20522;-65
2024/01/29 09:55:50;;;;;;;6.00;4.80;;;10.30;99.60;;;;;;5020399;28;20061;-66
2024/01/29 09:58:16;;;;;;;8.32;5.07;;;10.30;99.70;;;;;;5024078;28;20409;-65
2024/01/29 10:00:41;;;;;;;5.47;4.78;;;10.30;99.90;;;;;;5024736;28;20045;-65
2024/01/29 10:03:19;;;;;;;9.43;5.03;;;10.20;99.90;;;;;;4988354;28;20335;-65
2024/01/29 10:05:45;;;;;;;7.75;6.03;;;10.10;99.90;;;;;;5024325;28;20037;-65
2024/01/29 10:08:12;;;;;;;5.85;4.70;;;10.10;99.90;;;;;;5037550;28;20033;-65
2024/01/29 10:10:38;;;;;;;9.20;5.80;;;10.00;99.90;;;;;;5023862;28;20048;-65
2024/01/29 10:13:05;;;;;;;5.87;4.97;;;10.00;99.90;;;;;;5023630;28;20329;-65
2024/01/29 10:15:31;;;;;;;5.80;5.20;;;10.00;99.90;;;;;;5007934;28;20084;-66
2024/01/29 10:17:57;;;;;;;7.10;5.80;;;10.00;99.90;;;;;;5029129;28;20130;-65
2024/01/29 10:20:23;;;;;;;8.02;5.15;;;10.00;99.90;;;;;;5025506;28;20045;-66
2024/01/29 10:22:57;;;;;;;;;;;10.00;99.90;;;;;;5028236;28;20060;-65
2024/01/29 10:25:23;;;;;;;7.85;5.93;;;10.00;99.90;;;;;;5028180;28;20320;-65
2024/01/29 10:27:48;;;;;;;8.35;6.22;;;10.00;99.90;;;;;;5020171;28;20037;-65
2024/01/29 10:30:15;;;;;;;7.40;5.43;;;10.10;99.90;;;;;;5028644;28;20517;-65
2024/01/29 10:32:40;;;;;;;9.45;6.00;;;10.20;99.90;;;;;;5029960;28;20482;-65
2024/01/29 10:35:06;;;;;;;6.10;5.50;;;10.30;99.90;;;;;;5028614;28;20073;-65
2024/01/29 10:37:32;;;;;;;6.45;5.78;;;10.30;99.90;;;;;;5033561;28;20073;-65
2024/01/29 10:40:02;;;;;;;7.22;6.53;;;10.30;99.90;;;;;;5032558;28;20076;-65
2024/01/29 10:42:28;;;;;;;7.68;5.93;;;10.30;99.90;;;;;;5031680;28;20037;-65
2024/01/29 10:44:58;;;;;;;6.18;5.38;;;10.20;99.90;;;;;;5027582;28;20049;-65
2024/01/29 10:47:28;;;;;;;8.55;6.57;;;10.30;99.90;;;;;;5025941;28;20076;-66
2024/01/29 10:49:56;;;;;;;9.07;6.45;;;10.40;99.90;;;;;;5028236;28;20413;-65
2024/01/29 10:52:23;;;;;;;9.35;6.68;;;10.40;99.90;;;;;;5009444;28;20037;-67
2024/01/29 10:54:50;;;;;;;7.13;6.43;;;10.60;99.90;;;;;;5027059;28;20075;-65
2024/01/29 10:57:18;;;;;;;8.38;6.13;;;10.70;99.90;;;;;;5029005;28;20033;-66
2024/01/29 10:59:45;;;;;;;6.90;6.22;;;10.80;99.90;;;;;;5028615;28;20045;-66
2024/01/29 11:02:14;;;;;;;7.78;6.38;;;10.80;99.90;;;;;;5027984;28;20052;-66
2024/01/29 11:04:40;;;;;;;6.88;6.00;;;10.80;99.90;;;;;;5026310;28;20095;-66
2024/01/29 11:07:15;;;;;;;11.20;8.05;;;10.80;99.90;;;;;;5031390;28;20045;-66
2024/01/29 11:09:55;;;;;;;10.93;7.20;;;10.70;99.90;;;;;;5027305;28;20488;-65
2024/01/29 11:12:21;;;;;;;8.48;6.45;;;10.50;99.90;;;;;;5026552;28;20424;-66
2024/01/29 11:15:02;;;;;;;9.13;6.63;;;10.50;99.90;;;;;;5008837;28;20115;-66
2024/01/29 11:17:28;;;;;;;10.57;6.90;;;10.60;99.90;;;;;;5021743;28;20572;-66
2024/01/29 11:19:58;;;;;;;9.88;7.18;;;10.70;99.90;;;;;;4999968;28;20033;-65
2024/01/29 11:22:34;;;;;;;10.27;7.00;;;10.80;99.90;;;;;;4997611;28;20034;-66
2024/01/29 11:25:05;;;;;;;7.53;6.82;;;10.90;99.90;;;;;;5023184;28;20071;-66
2024/01/29 11:27:31;;;;;;;12.25;7.63;;;11.00;99.90;;;;;;5016181;28;20056;-66
2024/01/29 11:29:56;;;;;;;9.50;6.15;;;11.10;99.90;;;;;;5020797;28;20406;-65
2024/01/29 11:32:22;;;;;;;9.33;7.13;;;11.20;99.90;;;;;;5018207;28;20041;-65
2024/01/29 11:34:48;;;;;;;10.40;7.40;;;11.20;99.90;;;;;;5019675;28;20072;-65
2024/01/29 11:37:23;;;;;;;8.07;6.83;;;11.30;99.90;;;;;;5021881;28;20455;-65
2024/01/29 11:39:50;;;;;;;10.98;7.85;;;11.40;99.90;;;;;;5020980;28;20445;-67
2024/01/29 11:42:18;;;;;;;8.48;7.22;;;11.50;99.90;;;;;;5008396;28;20041;-65
2024/01/29 11:44:44;;;;;;;8.50;7.28;;;11.50;99.90;;;;;;5018934;28;20084;-65
2024/01/29 11:47:09;;;;;;;9.77;6.90;;;11.60;99.90;;;;;;5027751;28;20116;-65
2024/01/29 11:49:35;;;;;;;11.98;7.18;;;11.70;99.90;;;;;;5008038;28;20490;-65
2024/01/29 11:52:01;;;;;;;8.50;7.10;;;11.60;99.90;;;;;;5027736;28;20213;-65
2024/01/29 11:54:26;;;;;;;7.82;6.35;;;11.80;99.90;;;;;;5026914;28;20284;-65
2024/01/29 11:56:52;;;;;;;11.87;8.23;;;11.80;99.90;;;;;;4994363;28;20037;-65
2024/01/29 11:59:17;;;;;;;9.30;7.27;;;11.90;99.90;;;;;;5025808;28;20033;-65
2024/01/29 12:01:43;;;;;;;8.23;7.32;;;11.90;99.90;;;;;;5015329;28;20041;-65
2024/01/29 12:04:11;;;;;;;9.67;7.97;;;12.10;99.90;;;;;;5026087;28;20040;-66
2024/01/29 12:06:37;;;;;;;10.52;8.20;;;12.20;99.90;;;;;;5008055;28;20045;-65
2024/01/29 12:09:07;;;;;;;9.82;8.00;;;12.20;99.90;;;;;;5025427;28;20087;-65
2024/01/29 12:11:32;;;;;;;9.52;7.22;;;12.40;99.90;;;;;;5007794;28;20041;-64
2024/01/29 12:13:58;;;;;;;11.50;8.90;;;12.30;99.90;;;;;;4998011;28;20445;-64
2024/01/29 12:16:26;;;;;;;12.93;8.13;;;12.30;99.90;;;;;;5015833;28;20660;-65
2024/01/29 12:18:54;;;;;;;12.52;7.88;;;12.50;99.90;;;;;;5039536;28;20561;-65
2024/01/29 12:21:20;;;;;;;12.50;8.15;;;12.60;99.90;;;;;;5008025;28;20052;-63
2024/01/29 12:23:46;;;;;;;9.88;7.72;;;12.60;99.90;;;;;;5007847;28;20489;-63
2024/01/29 12:26:13;;;;;;;7.97;7.18;;;12.70;99.90;;;;;;5003152;28;20080;-62
2024/01/29 12:28:39;;;;;;;9.98;7.20;;;12.70;99.90;;;;;;5004242;28;20041;-63
2024/01/29 12:31:08;;;;;;;8.02;7.25;;;12.70;99.90;;;;;;5026481;28;20037;-64
2024/01/29 12:33:35;;;;;;;11.68;8.57;;;12.60;99.90;;;;;;5009992;28;20079;-63
2024/01/29 12:36:11;;;;;;;8.65;7.60;;;12.40;99.90;;;;;;5025360;28;20049;-64
2024/01/29 12:38:38;;;;;;;9.30;7.38;;;12.10;99.90;;;;;;5006275;28;20045;-62
2024/01/29 12:41:05;;;;;;;11.95;8.70;;;11.80;99.90;;;;;;5027828;28;20041;-63
2024/01/29 12:43:30;;;;;;;9.95;8.25;;;11.50;99.90;;;;;;5027111;28;20041;-63
2024/01/29 12:46:11;;;;;;;9.50;7.95;;;11.40;99.90;;;;;;4991779;28;20035;-62
2024/01/29 12:48:37;;;;;;;11.27;8.55;;;11.20;99.90;;;;;;5024242;28;20061;-64
2024/01/29 12:51:04;;;;;;;15.10;9.40;;;11.10;99.90;;;;;;5008134;28;20033;-63